sensor_id;sensor_type;location;lat;lon;timestamp;pressure;altitude;pressure_sealevel;temperature;humidity
5755;BME280;2902;42.130;24.732;2023-05-19T00:00:59;99498.63;;;14.95;82.68
5755;BME280;2902;42.130;24.732;2023-05-19T00:03:27;99504.84;;;15.07;82.46
5755;BME280;2902;42.130;24.732;2023-05-19T00:05:55;99496.69;;;15.02;82.37
5755;BME280;2902;42.130;24.732;2023-05-19T00:08:23;99498.09;;;15.05;82.38
5755;BME280;2902;42.130;24.732;2023-05-19T00:10:52;99500.84;;;14.98;82.62
5755;BME280;2902;42.130;24.732;2023-05-19T00:13:20;99491.13;;;15.04;82.12
5755;BME280;2902;42.130;24.732;2023-05-19T00:15:47;99489.84;;;15.06;82.24
5755;BME280;2902;42.130;24.732;2023-05-19T00:18:14;99490.91;;;15.05;81.92
5755;BME280;2902;42.130;24.732;2023-05-19T00:20:41;99489.84;;;15.06;81.99
5755;BME280;2902;42.130;24.732;2023-05-19T00:23:09;99490.28;;;15.03;81.76
5755;BME280;2902;42.130;24.732;2023-05-19T00:25:35;99502.63;;;15.04;81.69
5755;BME280;2902;42.130;24.732;2023-05-19T00:28:04;99489.84;;;15.06;81.51
5755;BME280;2902;42.130;24.732;2023-05-19T00:30:31;99491.78;;;14.99;81.69
5755;BME280;2902;42.130;24.732;2023-05-19T00:32:57;99494.00;;;15.02;81.29
5755;BME280;2902;42.130;24.732;2023-05-19T00:35:24;99496.81;;;15.07;81.36
5755;BME280;2902;42.130;24.732;2023-05-19T00:37:51;99490.28;;;15.03;81.30
5755;BME280;2902;42.130;24.732;2023-05-19T00:40:17;99487.47;;;14.98;81.45
5755;BME280;2902;42.130;24.732;2023-05-19T00:42:44;99489.63;;;15.08;80.72
5755;BME280;2902;42.130;24.732;2023-05-19T00:45:12;99467.47;;;15.01;81.07
5755;BME280;2902;42.130;24.732;2023-05-19T00:47:39;99484.06;;;15.09;80.61
5755;BME280;2902;42.130;24.732;2023-05-19T00:50:06;99484.50;;;15.06;81.12
5755;BME280;2902;42.130;24.732;2023-05-19T00:52:33;99482.88;;;15.05;80.63
5755;BME280;2902;42.130;24.732;2023-05-19T00:54:59;99488.56;;;15.09;80.46
5755;BME280;2902;42.130;24.732;2023-05-19T00:57:26;99480.13;;;15.12;80.57
5755;BME280;2902;42.130;24.732;2023-05-19T00:59:53;99473.34;;;15.09;80.43
5755;BME280;2902;42.130;24.732;2023-05-19T01:02:22;99472.31;;;15.10;80.78
5755;BME280;2902;42.130;24.732;2023-05-19T01:04:49;99475.41;;;15.07;80.41
5755;BME280;2902;42.130;24.732;2023-05-19T01:07:17;99482.03;;;15.05;80.40
5755;BME280;2902;42.130;24.732;2023-05-19T01:09:46;99477.44;;;15.12;79.89
5755;BME280;2902;42.130;24.732;2023-05-19T01:12:13;99475.19;;;15.09;80.36
5755;BME280;2902;42.130;24.732;2023-05-19T01:14:40;99483.00;;;15.10;80.24
5755;BME280;2902;42.130;24.732;2023-05-19T01:17:11;99474.25;;;15.03;80.39
5755;BME280;2902;42.130;24.732;2023-05-19T01:19:52;99479.38;;;15.05;80.50
5755;BME280;2902;42.130;24.732;2023-05-19T01:22:39;99476.63;;;14.93;81.12
5755;BME280;2902;42.130;24.732;2023-05-19T01:28:36;99487.84;;;15.02;81.08
5755;BME280;2902;42.130;24.732;2023-05-19T01:31:11;99478.84;;;14.96;80.85
5755;BME280;2902;42.130;24.732;2023-05-19T01:33:40;99479.66;;;14.97;80.22
5755;BME280;2902;42.130;24.732;2023-05-19T01:36:07;99483.53;;;15.01;80.24
5755;BME280;2902;42.130;24.732;2023-05-19T01:38:37;99482.88;;;15.05;79.96
5755;BME280;2902;42.130;24.732;2023-05-19T01:41:05;99484.50;;;15.06;79.97
5755;BME280;2902;42.130;24.732;2023-05-19T01:43:32;99486.56;;;15.04;79.52
5755;BME280;2902;42.130;24.732;2023-05-19T01:46:00;99486.13;;;15.07;79.85
5755;BME280;2902;42.130;24.732;2023-05-19T01:48:29;99485.53;;;15.05;79.36
5755;BME280;2902;42.130;24.732;2023-05-19T01:50:56;99482.69;;;15.00;79.70
5755;BME280;2902;42.130;24.732;2023-05-19T01:53:22;99482.00;;;14.93;79.53
5755;BME280;2902;42.130;24.732;2023-05-19T01:55:50;99483.53;;;15.01;79.37
5755;BME280;2902;42.130;24.732;2023-05-19T01:58:24;99482.03;;;15.05;79.04
5755;BME280;2902;42.130;24.732;2023-05-19T02:00:58;99491.34;;;15.02;79.10
5755;BME280;2902;42.130;24.732;2023-05-19T02:03:39;99486.44;;;14.99;79.40
5755;BME280;2902;42.130;24.732;2023-05-19T02:06:18;99493.94;;;15.09;78.72
5755;BME280;2902;42.130;24.732;2023-05-19T02:08:52;99481.22;;;15.04;78.80
5755;BME280;2902;42.130;24.732;2023-05-19T02:11:28;99490.91;;;15.05;78.40
5755;BME280;2902;42.130;24.732;2023-05-19T02:14:00;99495.06;;;15.01;79.15
5755;BME280;2902;42.130;24.732;2023-05-19T02:16:28;99494.88;;;14.96;78.85
5755;BME280;2902;42.130;24.732;2023-05-19T02:18:56;99491.91;;;15.04;79.01
5755;BME280;2902;42.130;24.732;2023-05-19T02:21:24;99493.66;;;14.99;79.43
5755;BME280;2902;42.130;24.732;2023-05-19T02:23:50;99497.75;;;15.01;79.00
5755;BME280;2902;42.130;24.732;2023-05-19T02:26:17;99495.84;;;15.02;79.00
5755;BME280;2902;42.130;24.732;2023-05-19T02:28:44;99503.44;;;15.05;79.19
5755;BME280;2902;42.130;24.732;2023-05-19T02:31:10;99496.91;;;15.01;79.32
5755;BME280;2902;42.130;24.732;2023-05-19T02:33:37;99500.69;;;15.11;79.31
5755;BME280;2902;42.130;24.732;2023-05-19T02:36:06;99497.00;;;14.94;79.10
5755;BME280;2902;42.130;24.732;2023-05-19T02:38:33;99505.66;;;14.90;79.62
5755;BME280;2902;42.130;24.732;2023-05-19T02:41:00;99497.00;;;14.94;79.41
5755;BME280;2902;42.130;24.732;2023-05-19T02:43:27;99503.81;;;14.90;80.07
5755;BME280;2902;42.130;24.732;2023-05-19T02:45:54;99488.06;;;14.82;80.02
5755;BME280;2902;42.130;24.732;2023-05-19T02:48:21;99491.09;;;14.86;79.91
5755;BME280;2902;42.130;24.732;2023-05-19T02:50:48;99479.00;;;14.65;80.17
5755;BME280;2902;42.130;24.732;2023-05-19T02:53:16;99501.44;;;14.82;80.19
5755;BME280;2902;42.130;24.732;2023-05-19T02:55:42;99500.31;;;14.90;79.95
5755;BME280;2902;42.130;24.732;2023-05-19T02:58:09;99491.34;;;14.84;80.44
5755;BME280;2902;42.130;24.732;2023-05-19T03:00:36;99492.56;;;14.88;80.32
5755;BME280;2902;42.130;24.732;2023-05-19T03:03:03;99498.25;;;14.92;79.92
5755;BME280;2902;42.130;24.732;2023-05-19T03:05:30;99496.72;;;14.84;80.10
5755;BME280;2902;42.130;24.732;2023-05-19T03:07:56;99510.00;;;14.91;79.97
5755;BME280;2902;42.130;24.732;2023-05-19T03:10:24;99503.59;;;14.92;79.91
5755;BME280;2902;42.130;24.732;2023-05-19T03:12:51;99502.19;;;14.89;80.00
5755;BME280;2902;42.130;24.732;2023-05-19T03:15:18;99514.09;;;14.93;79.90
5755;BME280;2902;42.130;24.732;2023-05-19T03:17:45;99522.53;;;14.90;80.14
5755;BME280;2902;42.130;24.732;2023-05-19T03:20:12;99508.13;;;14.91;80.15
5755;BME280;2902;42.130;24.732;2023-05-19T03:22:40;99510.22;;;14.89;80.46
5755;BME280;2902;42.130;24.732;2023-05-19T03:25:07;99512.22;;;14.94;80.71
5755;BME280;2902;42.130;24.732;2023-05-19T03:27:35;99518.53;;;14.99;80.67
5755;BME280;2902;42.130;24.732;2023-05-19T03:30:02;99527.88;;;15.08;80.69
5755;BME280;2902;42.130;24.732;2023-05-19T03:32:29;99522.69;;;15.13;80.33
5755;BME280;2902;42.130;24.732;2023-05-19T03:34:57;99509.69;;;14.99;80.87
5755;BME280;2902;42.130;24.732;2023-05-19T03:37:24;99514.16;;;15.05;80.64
5755;BME280;2902;42.130;24.732;2023-05-19T03:39:51;99521.94;;;15.06;80.44
5755;BME280;2902;42.130;24.732;2023-05-19T03:42:17;99524.28;;;15.03;80.30
5755;BME280;2902;42.130;24.732;2023-05-19T03:44:45;99526.88;;;15.09;80.49
5755;BME280;2902;42.130;24.732;2023-05-19T03:47:12;99513.31;;;15.04;79.73
5755;BME280;2902;42.130;24.732;2023-05-19T03:49:39;99535.31;;;15.24;79.62
5755;BME280;2902;42.130;24.732;2023-05-19T03:52:06;99535.78;;;15.21;79.48
5755;BME280;2902;42.130;24.732;2023-05-19T03:54:34;99533.97;;;15.33;79.25
5755;BME280;2902;42.130;24.732;2023-05-19T03:57:01;99525.72;;;15.35;79.24
5755;BME280;2902;42.130;24.732;2023-05-19T03:59:28;99535.09;;;15.44;78.68
5755;BME280;2902;42.130;24.732;2023-05-19T04:01:56;99538.59;;;15.44;78.47
5755;BME280;2902;42.130;24.732;2023-05-19T04:04:23;99536.34;;;15.41;79.07
5755;BME280;2902;42.130;24.732;2023-05-19T04:06:50;99547.06;;;15.41;78.77
5755;BME280;2902;42.130;24.732;2023-05-19T04:09:17;99547.00;;;15.48;78.36
5755;BME280;2902;42.130;24.732;2023-05-19T04:11:44;99551.66;;;15.52;78.54
5755;BME280;2902;42.130;24.732;2023-05-19T04:14:10;99550.44;;;15.66;78.58
5755;BME280;2902;42.130;24.732;2023-05-19T04:16:37;99548.88;;;15.59;78.44
5755;BME280;2902;42.130;24.732;2023-05-19T04:19:05;99546.22;;;15.59;79.00
5755;BME280;2902;42.130;24.732;2023-05-19T04:21:32;99547.47;;;15.56;79.04
5755;BME280;2902;42.130;24.732;2023-05-19T04:23:59;99539.91;;;15.53;78.75
5755;BME280;2902;42.130;24.732;2023-05-19T04:26:26;99545.84;;;15.55;78.86
5755;BME280;2902;42.130;24.732;2023-05-19T04:28:55;99540.97;;;15.64;78.28
5755;BME280;2902;42.130;24.732;2023-05-19T04:31:21;99541.06;;;15.57;78.84
5755;BME280;2902;42.130;24.732;2023-05-19T04:33:48;99554.97;;;15.66;78.40
5755;BME280;2902;42.130;24.732;2023-05-19T04:36:16;99553.84;;;15.73;78.38
5755;BME280;2902;42.130;24.732;2023-05-19T04:38:46;99559.66;;;15.70;78.00
5755;BME280;2902;42.130;24.732;2023-05-19T04:41:13;99555.22;;;15.76;77.84
5755;BME280;2902;42.130;24.732;2023-05-19T04:43:40;99556.78;;;15.83;78.00
5755;BME280;2902;42.130;24.732;2023-05-19T04:46:09;99564.63;;;15.97;77.92
5755;BME280;2902;42.130;24.732;2023-05-19T04:48:37;99566.63;;;16.01;77.61
5755;BME280;2902;42.130;24.732;2023-05-19T04:51:04;99577.06;;;16.32;76.91
5755;BME280;2902;42.130;24.732;2023-05-19T04:53:33;99577.34;;;16.77;75.20
5755;BME280;2902;42.130;24.732;2023-05-19T04:56:00;99591.72;;;17.56;72.45
5755;BME280;2902;42.130;24.732;2023-05-19T04:58:27;99598.47;;;18.76;68.49
5755;BME280;2902;42.130;24.732;2023-05-19T05:00:54;99609.63;;;19.82;64.78
5755;BME280;2902;42.130;24.732;2023-05-19T05:03:22;99606.75;;;20.73;61.55
5755;BME280;2902;42.130;24.732;2023-05-19T05:05:49;99615.63;;;21.52;58.48
5755;BME280;2902;42.130;24.732;2023-05-19T05:08:16;99620.16;;;21.98;55.80
5755;BME280;2902;42.130;24.732;2023-05-19T05:10:49;99624.31;;;22.50;54.96
5755;BME280;2902;42.130;24.732;2023-05-19T05:13:17;99623.25;;;22.56;53.46
5755;BME280;2902;42.130;24.732;2023-05-19T05:15:44;99631.91;;;22.88;52.87
5755;BME280;2902;42.130;24.732;2023-05-19T05:18:12;99631.88;;;23.08;52.29
5755;BME280;2902;42.130;24.732;2023-05-19T05:20:40;99631.22;;;23.61;51.38
5755;BME280;2902;42.130;24.732;2023-05-19T05:23:07;99636.56;;;23.91;50.44
5755;BME280;2902;42.130;24.732;2023-05-19T05:25:35;99627.84;;;23.99;49.17
5755;BME280;2902;42.130;24.732;2023-05-19T05:28:03;99632.00;;;23.67;49.57
5755;BME280;2902;42.130;24.732;2023-05-19T05:30:32;99626.41;;;23.43;50.54
5755;BME280;2902;42.130;24.732;2023-05-19T05:32:58;99622.28;;;23.61;50.42
5755;BME280;2902;42.130;24.732;2023-05-19T05:35:26;99621.88;;;23.92;50.96
5755;BME280;2902;42.130;24.732;2023-05-19T05:37:53;99623.09;;;24.20;49.34
5755;BME280;2902;42.130;24.732;2023-05-19T05:40:20;99630.47;;;24.09;48.44
5755;BME280;2902;42.130;24.732;2023-05-19T05:42:47;99623.50;;;23.93;49.27
5755;BME280;2902;42.130;24.732;2023-05-19T05:45:15;99631.34;;;24.05;49.08
5755;BME280;2902;42.130;24.732;2023-05-19T05:47:42;99634.56;;;24.07;49.26
5755;BME280;2902;42.130;24.732;2023-05-19T05:50:09;99637.44;;;24.25;48.71
5755;BME280;2902;42.130;24.732;2023-05-19T05:52:37;99629.56;;;24.24;48.51
5755;BME280;2902;42.130;24.732;2023-05-19T05:55:06;99631.06;;;24.01;48.21
5755;BME280;2902;42.130;24.732;2023-05-19T05:57:32;99626.84;;;23.65;50.15
5755;BME280;2902;42.130;24.732;2023-05-19T06:00:00;99631.28;;;23.36;50.71
5755;BME280;2902;42.130;24.732;2023-05-19T06:02:31;99633.50;;;23.29;50.59
5755;BME280;2902;42.130;24.732;2023-05-19T06:04:58;99641.56;;;23.54;50.91
5755;BME280;2902;42.130;24.732;2023-05-19T06:07:24;99639.31;;;23.76;50.25
5755;BME280;2902;42.130;24.732;2023-05-19T06:09:51;99641.97;;;23.81;50.09
5755;BME280;2902;42.130;24.732;2023-05-19T06:12:18;99642.63;;;24.22;50.54
5755;BME280;2902;42.130;24.732;2023-05-19T06:14:44;99655.16;;;24.56;49.93
5755;BME280;2902;42.130;24.732;2023-05-19T06:17:11;99660.25;;;24.68;48.81
5755;BME280;2902;42.130;24.732;2023-05-19T06:19:39;99650.41;;;23.75;50.47
5755;BME280;2902;42.130;24.732;2023-05-19T06:22:06;99655.41;;;23.53;51.09
5755;BME280;2902;42.130;24.732;2023-05-19T06:24:32;99653.84;;;23.32;51.75
5755;BME280;2902;42.130;24.732;2023-05-19T06:26:59;99652.50;;;22.59;53.67
5755;BME280;2902;42.130;24.732;2023-05-19T06:29:26;99649.84;;;21.83;56.10
5755;BME280;2902;42.130;24.732;2023-05-19T06:31:52;99651.28;;;21.49;58.27
5755;BME280;2902;42.130;24.732;2023-05-19T06:34:19;99647.59;;;21.18;58.60
5755;BME280;2902;42.130;24.732;2023-05-19T06:36:47;99658.06;;;21.51;59.02
5755;BME280;2902;42.130;24.732;2023-05-19T06:39:14;99657.06;;;21.67;58.09
5755;BME280;2902;42.130;24.732;2023-05-19T06:41:40;99653.22;;;21.58;57.86
5755;BME280;2902;42.130;24.732;2023-05-19T06:44:07;99652.63;;;21.41;58.46
5755;BME280;2902;42.130;24.732;2023-05-19T06:46:34;99655.78;;;21.28;59.39
5755;BME280;2902;42.130;24.732;2023-05-19T06:49:01;99654.34;;;21.67;59.06
5755;BME280;2902;42.130;24.732;2023-05-19T06:51:27;99658.19;;;21.71;58.88
5755;BME280;2902;42.130;24.732;2023-05-19T06:53:55;99647.88;;;21.68;59.35
5755;BME280;2902;42.130;24.732;2023-05-19T06:56:22;99651.53;;;21.94;59.84
5755;BME280;2902;42.130;24.732;2023-05-19T06:58:49;99652.41;;;22.34;58.21
5755;BME280;2902;42.130;24.732;2023-05-19T07:01:15;99648.16;;;22.93;56.13
5755;BME280;2902;42.130;24.732;2023-05-19T07:03:42;99654.63;;;23.42;54.17
5755;BME280;2902;42.130;24.732;2023-05-19T07:06:09;99646.72;;;23.51;53.98
5755;BME280;2902;42.130;24.732;2023-05-19T07:08:35;99648.56;;;23.65;54.92
5755;BME280;2902;42.130;24.732;2023-05-19T07:11:04;99652.38;;;23.64;53.45
5755;BME280;2902;42.130;24.732;2023-05-19T07:13:30;99643.53;;;23.29;55.32
5755;BME280;2902;42.130;24.732;2023-05-19T07:15:57;99644.88;;;23.16;54.67
5755;BME280;2902;42.130;24.732;2023-05-19T07:18:24;99641.66;;;22.94;55.80
5755;BME280;2902;42.130;24.732;2023-05-19T07:20:51;99644.09;;;22.86;55.83
5755;BME280;2902;42.130;24.732;2023-05-19T07:23:18;99639.47;;;23.26;56.45
5755;BME280;2902;42.130;24.732;2023-05-19T07:25:44;99637.03;;;23.05;56.41
5755;BME280;2902;42.130;24.732;2023-05-19T07:28:12;99631.06;;;23.13;57.06
5755;BME280;2902;42.130;24.732;2023-05-19T07:30:39;99639.72;;;23.30;56.36
5755;BME280;2902;42.130;24.732;2023-05-19T07:33:06;99653.97;;;23.65;55.46
5755;BME280;2902;42.130;24.732;2023-05-19T07:35:34;99640.63;;;23.94;54.87
5755;BME280;2902;42.130;24.732;2023-05-19T07:38:00;99649.25;;;24.06;54.24
5755;BME280;2902;42.130;24.732;2023-05-19T07:40:27;99658.19;;;24.50;54.58
5755;BME280;2902;42.130;24.732;2023-05-19T07:42:54;99661.44;;;24.90;52.73
5755;BME280;2902;42.130;24.732;2023-05-19T07:45:22;99664.19;;;24.85;51.13
5755;BME280;2902;42.130;24.732;2023-05-19T07:47:48;99668.19;;;24.64;50.83
5755;BME280;2902;42.130;24.732;2023-05-19T07:50:15;99661.16;;;24.53;50.18
5755;BME280;2902;42.130;24.732;2023-05-19T07:52:42;99656.03;;;24.47;50.63
5755;BME280;2902;42.130;24.732;2023-05-19T07:55:09;99654.78;;;24.29;51.58
5755;BME280;2902;42.130;24.732;2023-05-19T07:57:36;99660.28;;;24.19;51.15
5755;BME280;2902;42.130;24.732;2023-05-19T08:00:03;99659.00;;;24.07;52.96
5755;BME280;2902;42.130;24.732;2023-05-19T08:02:33;99657.34;;;24.11;52.98
5755;BME280;2902;42.130;24.732;2023-05-19T08:05:00;99654.44;;;23.92;52.98
5755;BME280;2902;42.130;24.732;2023-05-19T08:07:26;99658.59;;;24.28;51.83
5755;BME280;2902;42.130;24.732;2023-05-19T08:09:53;99661.25;;;24.38;51.77
5755;BME280;2902;42.130;24.732;2023-05-19T08:12:20;99666.13;;;24.41;51.49
5755;BME280;2902;42.130;24.732;2023-05-19T08:14:46;99668.75;;;24.51;51.68
5755;BME280;2902;42.130;24.732;2023-05-19T08:17:13;99673.34;;;24.56;51.00
5755;BME280;2902;42.130;24.732;2023-05-19T08:19:41;99678.63;;;24.37;50.50
5755;BME280;2902;42.130;24.732;2023-05-19T08:22:08;99673.56;;;24.21;50.94
5755;BME280;2902;42.130;24.732;2023-05-19T08:24:35;99681.13;;;24.29;51.73
5755;BME280;2902;42.130;24.732;2023-05-19T08:27:03;99683.41;;;24.60;51.14
5755;BME280;2902;42.130;24.732;2023-05-19T08:29:31;99677.41;;;24.63;51.51
5755;BME280;2902;42.130;24.732;2023-05-19T08:31:57;99669.69;;;24.75;51.01
5755;BME280;2902;42.130;24.732;2023-05-19T08:34:24;99670.75;;;25.13;50.20
5755;BME280;2902;42.130;24.732;2023-05-19T08:36:52;99678.47;;;25.35;49.41
5755;BME280;2902;42.130;24.732;2023-05-19T08:39:22;99673.00;;;25.82;50.08
5755;BME280;2902;42.130;24.732;2023-05-19T08:41:51;99681.25;;;26.00;48.58
5755;BME280;2902;42.130;24.732;2023-05-19T08:44:18;99681.19;;;26.24;48.84
5755;BME280;2902;42.130;24.732;2023-05-19T08:46:46;99675.69;;;26.29;47.49
5755;BME280;2902;42.130;24.732;2023-05-19T08:49:13;99678.84;;;26.54;46.87
5755;BME280;2902;42.130;24.732;2023-05-19T08:51:45;99668.34;;;26.66;46.50
5755;BME280;2902;42.130;24.732;2023-05-19T08:54:16;99669.16;;;26.67;45.75
5755;BME280;2902;42.130;24.732;2023-05-19T08:56:45;99671.31;;;26.70;45.95
5755;BME280;2902;42.130;24.732;2023-05-19T08:59:13;99668.88;;;27.00;45.49
5755;BME280;2902;42.130;24.732;2023-05-19T09:01:41;99670.81;;;27.32;44.02
5755;BME280;2902;42.130;24.732;2023-05-19T09:04:10;99661.78;;;27.31;43.06
5755;BME280;2902;42.130;24.732;2023-05-19T09:06:37;99674.88;;;27.16;43.76
5755;BME280;2902;42.130;24.732;2023-05-19T09:09:05;99670.19;;;27.21;41.63
5755;BME280;2902;42.130;24.732;2023-05-19T09:11:34;99674.75;;;27.07;42.11
5755;BME280;2902;42.130;24.732;2023-05-19T09:14:01;99665.25;;;27.37;41.98
5755;BME280;2902;42.130;24.732;2023-05-19T09:16:28;99661.53;;;27.87;40.15
5755;BME280;2902;42.130;24.732;2023-05-19T09:18:57;99652.81;;;27.98;39.44
5755;BME280;2902;42.130;24.732;2023-05-19T09:21:26;99653.03;;;28.02;39.01
5755;BME280;2902;42.130;24.732;2023-05-19T09:23:55;99642.84;;;27.94;41.06
5755;BME280;2902;42.130;24.732;2023-05-19T09:26:22;99653.09;;;28.24;39.53
5755;BME280;2902;42.130;24.732;2023-05-19T09:28:50;99662.41;;;28.58;38.92
5755;BME280;2902;42.130;24.732;2023-05-19T09:31:17;99662.38;;;28.50;36.69
5755;BME280;2902;42.130;24.732;2023-05-19T09:33:43;99654.41;;;28.84;40.69
5755;BME280;2902;42.130;24.732;2023-05-19T09:36:10;99667.44;;;29.31;38.93
5755;BME280;2902;42.130;24.732;2023-05-19T09:38:37;99654.72;;;29.57;36.26
5755;BME280;2902;42.130;24.732;2023-05-19T09:41:06;99653.66;;;29.45;37.52
5755;BME280;2902;42.130;24.732;2023-05-19T09:43:33;99644.69;;;29.22;36.42
5755;BME280;2902;42.130;24.732;2023-05-19T09:46:04;99641.81;;;29.27;37.09
5755;BME280;2902;42.130;24.732;2023-05-19T09:48:31;99636.81;;;28.98;38.28
5755;BME280;2902;42.130;24.732;2023-05-19T09:50:59;99639.75;;;29.02;36.44
5755;BME280;2902;42.130;24.732;2023-05-19T09:53:28;99634.56;;;29.23;36.43
5755;BME280;2902;42.130;24.732;2023-05-19T09:55:56;99637.69;;;29.38;38.14
5755;BME280;2902;42.130;24.732;2023-05-19T09:58:23;99640.22;;;29.26;37.17
5755;BME280;2902;42.130;24.732;2023-05-19T10:00:51;99644.19;;;28.98;36.74
5755;BME280;2902;42.130;24.732;2023-05-19T10:03:21;99640.13;;;28.87;36.85
5755;BME280;2902;42.130;24.732;2023-05-19T10:05:49;99624.91;;;28.72;37.63
5755;BME280;2902;42.130;24.732;2023-05-19T10:08:16;99611.91;;;28.20;37.71
5755;BME280;2902;42.130;24.732;2023-05-19T10:10:45;99623.41;;;27.95;39.22
5755;BME280;2902;42.130;24.732;2023-05-19T10:13:12;99616.84;;;27.83;40.32
5755;BME280;2902;42.130;24.732;2023-05-19T10:15:39;99615.22;;;27.82;40.12
5755;BME280;2902;42.130;24.732;2023-05-19T10:18:08;99621.91;;;27.49;39.72
5755;BME280;2902;42.130;24.732;2023-05-19T10:20:36;99617.34;;;27.31;43.10
5755;BME280;2902;42.130;24.732;2023-05-19T10:23:03;99611.19;;;27.25;45.06
5755;BME280;2902;42.130;24.732;2023-05-19T10:25:30;99611.97;;;27.26;45.26
5755;BME280;2902;42.130;24.732;2023-05-19T10:28:00;99604.91;;;27.25;45.51
5755;BME280;2902;42.130;24.732;2023-05-19T10:30:32;99604.31;;;27.28;43.12
5755;BME280;2902;42.130;24.732;2023-05-19T10:33:02;99602.69;;;27.27;41.99
5755;BME280;2902;42.130;24.732;2023-05-19T10:35:46;99608.94;;;27.27;39.73
5755;BME280;2902;42.130;24.732;2023-05-19T10:38:26;99605.09;;;27.42;39.60
5755;BME280;2902;42.130;24.732;2023-05-19T10:41:01;99598.81;;;27.68;40.86
5755;BME280;2902;42.130;24.732;2023-05-19T10:43:37;99599.84;;;27.99;40.70
5755;BME280;2902;42.130;24.732;2023-05-19T10:46:08;99603.38;;;28.35;40.11
5755;BME280;2902;42.130;24.732;2023-05-19T10:48:35;99594.75;;;28.64;39.71
5755;BME280;2902;42.130;24.732;2023-05-19T10:51:03;99608.75;;;28.62;36.95
5755;BME280;2902;42.130;24.732;2023-05-19T10:53:31;99620.94;;;28.56;36.37
5755;BME280;2902;42.130;24.732;2023-05-19T10:56:00;99610.44;;;28.36;36.86
5755;BME280;2902;42.130;24.732;2023-05-19T10:58:38;99612.66;;;28.12;37.17
5755;BME280;2902;42.130;24.732;2023-05-19T11:01:06;99607.13;;;27.90;38.03
5755;BME280;2902;42.130;24.732;2023-05-19T11:03:45;99603.06;;;27.88;38.75
5755;BME280;2902;42.130;24.732;2023-05-19T11:06:27;99611.75;;;27.76;38.65
5755;BME280;2902;42.130;24.732;2023-05-19T11:08:56;99593.47;;;27.77;39.14
5755;BME280;2902;42.130;24.732;2023-05-19T11:11:25;99608.66;;;27.83;41.28
5755;BME280;2902;42.130;24.732;2023-05-19T11:13:53;99606.50;;;27.80;42.26
5755;BME280;2902;42.130;24.732;2023-05-19T11:16:27;99628.16;;;27.90;41.68
5755;BME280;2902;42.130;24.732;2023-05-19T11:18:54;99640.28;;;27.43;37.46
5755;BME280;2902;42.130;24.732;2023-05-19T11:21:21;99635.25;;;26.73;40.11
5755;BME280;2902;42.130;24.732;2023-05-19T11:23:50;99615.47;;;26.12;41.87
5755;BME280;2902;42.130;24.732;2023-05-19T11:26:38;99611.28;;;26.19;41.72
5755;BME280;2902;42.130;24.732;2023-05-19T11:29:05;99611.69;;;26.08;41.13
5755;BME280;2902;42.130;24.732;2023-05-19T11:31:33;99610.84;;;26.12;41.88
5755;BME280;2902;42.130;24.732;2023-05-19T11:34:00;99610.25;;;25.50;42.29
5755;BME280;2902;42.130;24.732;2023-05-19T11:36:29;99595.31;;;25.71;42.02
5755;BME280;2902;42.130;24.732;2023-05-19T11:39:00;99591.53;;;25.67;41.43
5755;BME280;2902;42.130;24.732;2023-05-19T11:41:26;99592.31;;;25.49;42.76
5755;BME280;2902;42.130;24.732;2023-05-19T11:43:55;99597.63;;;25.40;43.05
5755;BME280;2902;42.130;24.732;2023-05-19T11:46:22;99600.72;;;25.29;43.06
5755;BME280;2902;42.130;24.732;2023-05-19T11:48:48;99598.19;;;25.37;43.91
5755;BME280;2902;42.130;24.732;2023-05-19T11:51:16;99598.44;;;25.59;43.18
5755;BME280;2902;42.130;24.732;2023-05-19T11:53:42;99589.66;;;25.86;41.76
5755;BME280;2902;42.130;24.732;2023-05-19T11:56:11;99594.28;;;26.09;41.41
5755;BME280;2902;42.130;24.732;2023-05-19T11:58:40;99592.16;;;26.06;42.90
5755;BME280;2902;42.130;24.732;2023-05-19T12:01:06;99577.34;;;26.12;42.01
5755;BME280;2902;42.130;24.732;2023-05-19T12:03:34;99577.13;;;26.27;41.38
5755;BME280;2902;42.130;24.732;2023-05-19T12:06:02;99578.41;;;26.48;41.34
5755;BME280;2902;42.130;24.732;2023-05-19T12:08:30;99583.13;;;26.61;40.34
5755;BME280;2902;42.130;24.732;2023-05-19T12:10:56;99577.66;;;26.61;41.88
5755;BME280;2902;42.130;24.732;2023-05-19T12:13:25;99578.31;;;26.71;41.46
5755;BME280;2902;42.130;24.732;2023-05-19T12:15:52;99573.06;;;26.75;41.90
5755;BME280;2902;42.130;24.732;2023-05-19T12:18:20;99567.03;;;26.78;42.29
5755;BME280;2902;42.130;24.732;2023-05-19T12:20:47;99565.81;;;26.52;41.78
5755;BME280;2902;42.130;24.732;2023-05-19T12:23:13;99565.97;;;26.60;43.25
5755;BME280;2902;42.130;24.732;2023-05-19T12:25:40;99569.66;;;26.51;41.69
5755;BME280;2902;42.130;24.732;2023-05-19T12:28:07;99568.13;;;26.45;42.80
5755;BME280;2902;42.130;24.732;2023-05-19T12:30:36;99568.72;;;26.42;42.29
5755;BME280;2902;42.130;24.732;2023-05-19T12:33:03;99565.56;;;26.16;42.69
5755;BME280;2902;42.130;24.732;2023-05-19T12:35:30;99562.38;;;26.28;42.85
5755;BME280;2902;42.130;24.732;2023-05-19T12:38:01;99563.94;;;26.15;42.67
5755;BME280;2902;42.130;24.732;2023-05-19T12:40:29;99556.22;;;26.22;43.02
5755;BME280;2902;42.130;24.732;2023-05-19T12:42:55;99558.84;;;26.46;41.82
5755;BME280;2902;42.130;24.732;2023-05-19T12:45:23;99554.47;;;26.63;42.97
5755;BME280;2902;42.130;24.732;2023-05-19T12:47:53;99553.47;;;26.73;43.13
5755;BME280;2902;42.130;24.732;2023-05-19T12:50:20;99545.97;;;26.65;41.75
5755;BME280;2902;42.130;24.732;2023-05-19T12:52:48;99544.59;;;26.67;40.60
5755;BME280;2902;42.130;24.732;2023-05-19T12:55:17;99547.81;;;26.69;41.13
5755;BME280;2902;42.130;24.732;2023-05-19T12:57:48;99547.53;;;26.71;41.72
5755;BME280;2902;42.130;24.732;2023-05-19T13:00:17;99548.13;;;26.68;41.78
5755;BME280;2902;42.130;24.732;2023-05-19T13:02:56;99550.44;;;26.74;38.98
5755;BME280;2902;42.130;24.732;2023-05-19T13:05:24;99543.97;;;26.70;39.46
5755;BME280;2902;42.130;24.732;2023-05-19T13:07:54;99547.34;;;26.81;39.78
5755;BME280;2902;42.130;24.732;2023-05-19T13:10:21;99547.75;;;26.88;40.10
5755;BME280;2902;42.130;24.732;2023-05-19T13:12:48;99540.16;;;26.85;39.70
5755;BME280;2902;42.130;24.732;2023-05-19T13:15:15;99534.53;;;26.95;42.47
5755;BME280;2902;42.130;24.732;2023-05-19T13:17:41;99541.72;;;27.04;40.50